Central Oregon RPC :: MT.HOBOND

liberation: 2021-10-16  07:30     latitude: 43.142592     longitude: -115.663059 61 birds
# LOFT PRING MILES ARRIVAL SPEED ToWin
1 LAYPORT LOFT AU21-CORP-0648 287.358 2021-10-16 12:47:54.974 1590.825 00:00:00
2 LAYPORT LOFT AU21-CORP-0691 287.358 2021-10-16 12:48:10.987 1589.491 00:00:16
3 TOPIGEONUSA AU21-MDC-1219 289.297 2021-10-16 12:54:58.744 1566.754 00:04:55
4 LUCAS CRAMER AU21-CORP-453 289.302 2021-10-16 12:56:05.321 1561.450 00:06:01
5 LUCAS CRAMER AU21-CORP-461 289.302 2021-10-16 12:56:06.209 1561.380 00:06:02
6 STEELE LOFT AU21-JEDD-11904 290.326 2021-10-16 13:01:24.662 1541.810 00:10:13
7 LUCAS CRAMER AU21-CORP-466 289.302 2021-10-16 13:01:24.067 1536.420 00:11:20
8 LAYPORT LOFT AU21-CORP-0680 287.358 2021-10-16 13:00:44.541 1529.134 00:12:50
9 RUETER FAMILY LOFT AU21-CORP-839 286.98 2021-10-16 13:07:21.694 1497.164 00:19:52
10 whistling wings AU21-CORP-0254 288.319 2021-10-16 13:11:37.155 1485.402 00:22:38
11 LAYPORT LOFT AU21-CORP-0629 287.358 2021-10-16 13:11:26.550 1481.213 00:23:32
12 whistling wings AU21-CORP-0946 288.319 2021-10-16 13:13:21.212 1477.899 00:24:22
13 whistling wings AU21-CORP-0939 288.319 2021-10-16 13:15:42.403 1467.839 00:26:44
14 LUCAS CRAMER AU21-CORP-444 289.302 2021-10-16 13:21:14.870 1449.607 00:31:11
15 LUCAS CRAMER AU21-CORP-408 289.302 2021-10-16 13:22:04.886 1446.175 00:32:01
16 whistling wings AU21-CORP-0938 288.319 2021-10-16 13:21:13.917 1444.749 00:32:15
17 LUCAS CRAMER AU21-CORP-465 289.302 2021-10-16 13:33:32.319 1400.597 00:43:28
18 LUCAS CRAMER AU21-CORP-464 289.302 2021-10-16 13:33:33.892 1400.496 00:43:30
19 LUCAS CRAMER AU21-CORP-459 289.302 2021-10-16 13:35:13.782 1394.113 00:45:10
20 RUETER FAMILY LOFT AU21-CORP-915 286.98 2021-10-16 13:35:31.722 1381.795 00:48:02
21 RUETER FAMILY LOFT AU21-CORP-824 286.98 2021-10-16 13:35:58.321 1380.121 00:48:28
22 RUETER FAMILY LOFT AU21-CORP-895 286.98 2021-10-16 13:36:20.496 1378.728 00:48:51
23 LAYPORT LOFT AU21-CORP-0674 287.358 2021-10-16 13:42:09.321 1358.973 00:54:14
24 RUETER FAMILY LOFT AU21-CORP-891 286.98 2021-10-16 13:42:21.376 1356.458 00:54:51
25 whistling wings AU21-CORP-1101 288.319 2021-10-16 13:48:05.278 1342.126 00:59:06
26 RUETER FAMILY LOFT AU21-CORP-836 286.98 2021-10-16 13:57:42.603 1302.740 01:10:13
27 RUETER FAMILY LOFT AU21-CORP-815 286.98 2021-10-16 13:57:54.714 1302.063 01:10:25
28 whistling wings AU21-CORP-0928 288.319 2021-10-16 14:08:41.999 1272.741 01:19:43
29 whistling wings AU21-CORP-0253 288.319 2021-10-16 14:08:45.869 1272.535 01:19:47
30 RUETER FAMILY LOFT AU21-CORP-919 286.98 2021-10-16 14:08:28.502 1267.546 01:20:59
31 LAYPORT LOFT AU21-CORP-0681 287.358 2021-10-16 14:09:52.930 1264.746 01:21:58
32 whistling wings AU21-CORP-0781 288.319 2021-10-16 14:26:39.492 1217.885 01:37:41
33 whistling wings AU21-CORP-0767 288.319 2021-10-16 14:26:52.472 1217.253 01:37:54
34 RUETER FAMILY LOFT AU21-CORP-892 286.98 2021-10-16 14:55:14.753 1134.397 02:07:45
35 ROCKY TOP AU21-CORP-0763 280.978 2021-10-16 14:58:03.164 1103.710 02:17:12
36 STEELE LOFT AU21-BORD-21056 290.326 2021-10-16 15:56:23.567 1009.045 03:05:12
37 LAYPORT LOFT AU21-CORP-0184 287.358 2021-10-16 15:54:38.607 1002.191 03:06:44
38 STEELE LOFT AU21-CORP-0120 290.326 2021-10-16 16:41:57.658 925.741 03:50:46
39 ROCKY TOP AU21-PNW-3505 280.978 2021-10-16 16:32:25.695 911.679 03:51:34
40 ROCKY TOP AU21-CORP-0749 280.978 2021-10-16 17:45:24.644 803.562 05:04:33
41 whistling wings AU21-CORP-0766 288.319 2021-10-16 18:11:19.304 791.244 05:22:20
42 ROCKY TOP AU21-CORP-0746 280.978 2021-10-16 17:56:31.811 789.300 05:15:40
43 ROCKY TOP AU21-CORP-0751 280.978 2021-10-17 09:20:45.777 596.277 08:38:29
44 STEELE LOFT AU21-BORD-21047 290.326 2021-10-17 10:21:28.459 574.090 09:28:51
45 STEELE LOFT AU21-CORP-0162 290.326 2021-10-17 10:21:40.913 573.956 09:29:04
46 ROCKY TOP AU21-JEDD-11824 280.978 2021-10-17 10:32:38.185 548.724 09:50:22
47 STEELE LOFT AU21-CORP-0128 290.326 2021-10-17 11:04:23.538 547.681 10:11:47
48 RUETER FAMILY LOFT AU21-CORP-828 286.98 2021-10-17 16:14:35.697 406.286 15:25:41
LAYPORT LOFT AU21-CORP-0683 0 0000-00-00 00:00:00.000 0.000 00:00:00
LAYPORT LOFT AU21-CORP-0685 0 0000-00-00 00:00:00.000 0.000 00:00:00
LAYPORT LOFT AU21-CORP-1001 0 0000-00-00 00:00:00.000 0.000 00:00:00
ROCKY TOP AU21-ARPU-11206 0 0000-00-00 00:00:00.000 0.000 00:00:00
ROCKY TOP AU21-CORP-0709 0 0000-00-00 00:00:00.000 0.000 00:00:00
ROCKY TOP AU21-CORP-0756 0 0000-00-00 00:00:00.000 0.000 00:00:00
ROCKY TOP AU21-CORP-0765 0 0000-00-00 00:00:00.000 0.000 00:00:00
ROCKY TOP AU21-CORP-0768 0 0000-00-00 00:00:00.000 0.000 00:00:00
STEELE LOFT AU21-CORP-0111 0 0000-00-00 00:00:00.000 0.000 00:00:00
STEELE LOFT AU21-CORP-0182 0 0000-00-00 00:00:00.000 0.000 00:00:00
TOPIGEONUSA AU21-CORP-0697 0 0000-00-00 00:00:00.000 0.000 00:00:00
TOPIGEONUSA AU21-JEDD-11820 0 0000-00-00 00:00:00.000 0.000 00:00:00
whistling wings AU21-CORP-1102 0 0000-00-00 00:00:00.000 0.000 00:00:00